createdAt,value
2018-09-29T00:01:22.310Z,95252.03
2018-09-29T00:03:50.390Z,95228.84
2018-09-29T00:06:19.858Z,95252.85
2018-09-29T00:08:47.993Z,95240.84
2018-09-29T00:11:16.098Z,95238.59
2018-09-29T00:13:44.199Z,95240.73
2018-09-29T00:16:12.525Z,95246.19
2018-09-29T00:18:40.556Z,95239.41
2018-09-29T00:21:09.462Z,95238.07
2018-09-29T00:23:38.645Z,95237.14
2018-09-29T00:26:06.671Z,95229.58
2018-09-29T00:28:34.652Z,95228.14
2018-09-29T00:31:02.751Z,95223.51
2018-09-29T00:33:30.732Z,95222.28
2018-09-29T00:35:59.973Z,95221.03
2018-09-29T00:38:27.943Z,95211.91
2018-09-29T00:40:55.926Z,95206.25
2018-09-29T00:43:23.902Z,95199.09
2018-09-29T00:45:52.011Z,95201.14
2018-09-29T00:48:20.357Z,95198.47
2018-09-29T00:50:48.598Z,95197.25
2018-09-29T00:53:16.686Z,95199.50
2018-09-29T00:55:44.777Z,95201.95
2018-09-29T00:58:12.748Z,95197.43
2018-09-29T01:00:40.808Z,95193.84
2018-09-29T01:03:08.945Z,95199.50
2018-09-29T01:05:37.134Z,95194.36
2018-09-29T01:08:05.369Z,95201.63
2018-09-29T01:10:33.528Z,95205.25
2018-09-29T01:13:01.619Z,95200.73
2018-09-29T01:15:29.699Z,95197.44
2018-09-29T01:18:00.788Z,95198.95
2018-09-29T01:20:29.762Z,95199.88
2018-09-29T01:22:58.268Z,95185.92
2018-09-29T01:25:26.357Z,95194.66
2018-09-29T01:27:54.346Z,95193.14
2018-09-29T01:30:22.751Z,95187.80
2018-09-29T01:32:50.709Z,95178.95
2018-09-29T01:35:18.909Z,95178.66
2018-09-29T01:37:47.002Z,95180.62
2018-09-29T01:40:14.969Z,95182.03
2018-09-29T01:42:44.115Z,95181.44
2018-09-29T01:45:12.193Z,95182.25
2018-09-29T01:47:40.388Z,95177.63
2018-09-29T01:50:08.371Z,95185.44
2018-09-29T01:52:36.448Z,95180.10
2018-09-29T01:55:04.572Z,95184.70
2018-09-29T01:57:32.622Z,95186.47
2018-09-29T02:00:00.720Z,95181.33
2018-09-29T02:02:28.719Z,95181.44
2018-09-29T02:04:56.916Z,95179.37
2018-09-29T02:07:26.139Z,95182.77
2018-09-29T02:09:54.210Z,95182.44
2018-09-29T02:12:22.295Z,95180.81
2018-09-29T02:14:50.383Z,95182.66
2018-09-29T02:17:18.321Z,95175.36
2018-09-29T02:19:46.461Z,95179.77
2018-09-29T02:22:14.572Z,95181.63
2018-09-29T02:24:42.970Z,95183.25
2018-09-29T02:27:11.028Z,95188.18
2018-09-29T02:29:39.221Z,95185.73
2018-09-29T02:32:07.227Z,95186.33
2018-09-29T02:34:35.206Z,95189.73
2018-09-29T02:37:03.236Z,95193.22
2018-09-29T02:39:31.388Z,95191.99
2018-09-29T02:41:59.464Z,95189.11
2018-09-29T02:44:27.344Z,95183.25
2018-09-29T02:46:55.346Z,95178.25
2018-09-29T02:49:24.013Z,95173.52
2018-09-29T02:51:52.132Z,95171.66
2018-09-29T02:54:20.218Z,95163.55
2018-09-29T02:56:48.206Z,95170.84
2018-09-29T02:59:16.295Z,95165.22
2018-09-29T03:01:44.741Z,95166.66
2018-09-29T03:04:12.782Z,95159.47
2018-09-29T03:06:40.782Z,95158.22
2018-09-29T03:09:09.578Z,95161.22
2018-09-29T03:11:37.877Z,95162.55
2018-09-29T03:14:06.062Z,95153.30
2018-09-29T03:16:34.164Z,95159.26
2018-09-29T03:19:02.468Z,95162.03
2018-09-29T03:21:30.557Z,95160.59
2018-09-29T03:23:58.622Z,95159.48
2018-09-29T03:26:26.623Z,95151.78
2018-09-29T03:28:54.597Z,95151.78
2018-09-29T03:31:23.140Z,95146.03
2018-09-29T03:33:51.096Z,95138.63
2018-09-29T03:36:19.517Z,95145.30
2018-09-29T03:38:47.592Z,95142.34
2018-09-29T03:41:15.774Z,95145.30
2018-09-29T03:43:43.875Z,95132.56
2018-09-29T03:46:12.576Z,95149.92
2018-09-29T03:48:40.680Z,95147.97
2018-09-29T03:51:08.839Z,95155.45
2018-09-29T03:53:37.659Z,95153.52
2018-09-29T03:56:05.616Z,95153.30
2018-09-29T03:58:33.715Z,95161.19
2018-09-29T04:01:01.843Z,95155.38
2018-09-29T04:03:29.901Z,95159.45
2018-09-29T04:05:57.982Z,95166.52
2018-09-29T04:08:26.089Z,95159.55
2018-09-29T04:10:54.635Z,95153.08
2018-09-29T04:13:22.880Z,95161.19
2018-09-29T04:15:51.042Z,95153.11
2018-09-29T04:18:19.360Z,95154.84
2018-09-29T04:20:47.373Z,95147.16
2018-09-29T04:23:15.337Z,95148.56
2018-09-29T04:25:44.153Z,95150.52
2018-09-29T04:28:13.952Z,95145.71
2018-09-29T04:30:42.070Z,95149.52
2018-09-29T04:33:10.146Z,95155.26
2018-09-29T04:35:38.129Z,95154.33
2018-09-29T04:38:06.195Z,95150.66
2018-09-29T04:40:34.305Z,95150.45
2018-09-29T04:43:02.419Z,95151.39
2018-09-29T04:45:30.485Z,95149.23
2018-09-29T04:47:58.591Z,95147.48
2018-09-29T04:50:26.778Z,95154.95
2018-09-29T04:52:54.705Z,95151.39
2018-09-29T04:55:22.960Z,95152.00
2018-09-29T04:57:50.936Z,95152.61
2018-09-29T05:00:18.946Z,95154.98
2018-09-29T05:02:46.904Z,95159.38
2018-09-29T05:05:14.922Z,95152.70
2018-09-29T05:07:43.017Z,95151.08
2018-09-29T05:10:10.972Z,95147.98
2018-09-29T05:12:38.959Z,95148.50
2018-09-29T05:15:07.200Z,95152.92
2018-09-29T05:17:35.253Z,95154.77
2018-09-29T05:20:05.003Z,95147.28
2018-09-29T05:22:32.943Z,95151.38
2018-09-29T05:25:00.977Z,95155.91
2018-09-29T05:27:44.901Z,95157.30
2018-09-29T05:33:00.357Z,95167.59
2018-09-29T05:35:32.631Z,95165.32
2018-09-29T05:38:14.165Z,95164.61
2018-09-29T05:43:53.804Z,95164.31
2018-09-29T05:46:29.106Z,95166.68
2018-09-29T05:49:33.096Z,95164.42
2018-09-29T05:52:03.070Z,95166.47
2018-09-29T06:01:55.948Z,95169.45
2018-09-29T06:04:26.453Z,95171.19
2018-09-29T06:07:06.503Z,95174.27
2018-09-29T06:09:46.222Z,95173.97
2018-09-29T06:12:14.736Z,95181.75
2018-09-29T06:14:56.366Z,95180.53
2018-09-29T06:17:57.817Z,95187.28
2018-09-29T06:20:39.885Z,95184.02
2018-09-29T06:29:02.317Z,95187.88
2018-09-29T06:31:42.065Z,95190.63
2018-09-29T06:34:16.283Z,95176.77
2018-09-29T06:37:13.969Z,95193.59
2018-09-29T06:39:42.224Z,95196.88
2018-09-29T06:42:10.327Z,95202.83
2018-09-29T06:44:38.399Z,95208.95
2018-09-29T06:47:06.686Z,95206.90
2018-09-29T06:49:34.778Z,95201.75
2018-09-29T06:52:03.669Z,95200.64
2018-09-29T06:54:32.842Z,95203.30
2018-09-29T06:57:00.989Z,95201.34
2018-09-29T06:59:28.967Z,95207.56
2018-09-29T07:01:57.057Z,95200.97
2018-09-29T07:04:25.148Z,95205.08
2018-09-29T07:06:55.291Z,95206.53
2018-09-29T07:09:23.377Z,95203.79
2018-09-29T07:11:51.428Z,95205.75
2018-09-29T07:14:19.361Z,95204.95
2018-09-29T07:16:47.951Z,95202.91
2018-09-29T07:19:16.077Z,95207.20
2018-09-29T07:21:44.162Z,95207.13
2018-09-29T07:24:12.198Z,95208.98
2018-09-29T07:26:40.355Z,95204.17
2018-09-29T07:29:09.016Z,95204.47
2018-09-29T07:31:37.204Z,95208.77
2018-09-29T07:34:05.194Z,95212.58
2018-09-29T07:36:33.301Z,95215.03
2018-09-29T07:39:02.639Z,95218.20
2018-09-29T07:41:30.684Z,95216.36
2018-09-29T07:43:58.790Z,95219.25
2018-09-29T07:46:26.861Z,95216.70
2018-09-29T07:48:54.962Z,95217.21
2018-09-29T07:51:23.047Z,95216.88
2018-09-29T07:53:51.850Z,95220.28
2018-09-29T07:56:19.874Z,95223.36
2018-09-29T07:58:48.139Z,95223.47
2018-09-29T08:01:16.847Z,95224.06
2018-09-29T08:03:44.936Z,95225.80
2018-09-29T08:06:13.052Z,95222.62
2018-09-29T08:08:41.944Z,95218.73
2018-09-29T08:11:10.548Z,95213.21
2018-09-29T08:13:38.608Z,95207.55
2018-09-29T08:16:06.819Z,95203.36
2018-09-29T08:18:34.886Z,95203.47
2018-09-29T08:21:02.988Z,95198.03
2018-09-29T08:23:30.980Z,95199.87
2018-09-29T08:26:00.011Z,95196.59
2018-09-29T08:28:28.091Z,95192.99
2018-09-29T08:30:56.732Z,95191.25
2018-09-29T08:33:24.710Z,95194.03
2018-09-29T08:35:52.865Z,95193.02
2018-09-29T08:38:22.167Z,95192.29
2018-09-29T08:40:50.261Z,95189.73
2018-09-29T08:43:18.350Z,95182.06
2018-09-29T08:45:46.445Z,95185.03
2018-09-29T08:48:14.528Z,95178.36
2018-09-29T08:50:42.526Z,95181.13
2018-09-29T08:53:10.512Z,95171.80
2018-09-29T08:55:39.050Z,95176.09
2018-09-29T08:58:07.090Z,95175.09
2018-09-29T09:00:35.080Z,95180.20
2018-09-29T09:03:03.573Z,95172.72
2018-09-29T09:05:31.562Z,95176.53
2018-09-29T09:08:01.073Z,95170.05
2018-09-29T09:10:29.075Z,95165.75
2018-09-29T09:12:57.104Z,95167.69
2018-09-29T09:15:25.051Z,95162.24
2018-09-29T09:17:53.049Z,95164.61
2018-09-29T09:20:21.129Z,95161.42
2018-09-29T09:22:49.128Z,95161.23
2018-09-29T09:25:17.353Z,95157.02
2018-09-29T09:30:44.819Z,95164.02
2018-09-29T09:33:25.647Z,95167.39
2018-09-29T09:35:57.024Z,95163.69
2018-09-29T09:38:49.128Z,95174.57
2018-09-29T09:41:28.932Z,95159.47
2018-09-29T09:44:01.113Z,95159.66
2018-09-29T09:46:32.660Z,95162.22
2018-09-29T09:51:43.759Z,95160.70
2018-09-29T09:54:21.592Z,95157.62
2018-09-29T09:57:01.548Z,95156.19
2018-09-29T10:02:21.199Z,95159.66
2018-09-29T10:04:49.196Z,95164.70
2018-09-29T10:07:17.312Z,95164.62
2018-09-29T10:09:45.390Z,95155.17
2018-09-29T10:12:13.461Z,95159.28
2018-09-29T10:14:41.654Z,95149.02
2018-09-29T10:17:09.629Z,95147.27
2018-09-29T10:19:39.397Z,95142.27
2018-09-29T10:22:07.562Z,95141.03
2018-09-29T10:24:35.546Z,95141.84
2018-09-29T10:27:10.514Z,95128.29
2018-09-29T10:29:47.317Z,95134.77
2018-09-29T10:32:48.090Z,95133.44
2018-09-29T10:35:17.413Z,95125.02
2018-09-29T10:37:55.975Z,95129.02
2018-09-29T10:40:25.170Z,95122.45
2018-09-29T10:42:56.509Z,95122.97
2018-09-29T10:46:13.350Z,95123.27
2018-09-29T10:49:01.071Z,95118.84
2018-09-29T10:54:18.904Z,95110.33
2018-09-29T10:56:47.064Z,95110.33
2018-09-29T10:59:15.213Z,95106.66
2018-09-29T11:01:43.334Z,95102.42
2018-09-29T11:04:11.442Z,95100.08
2018-09-29T11:06:39.754Z,95097.70
2018-09-29T11:09:08.696Z,95096.08
2018-09-29T11:11:36.721Z,95100.37
2018-09-29T11:14:04.706Z,95087.56
2018-09-29T11:16:32.794Z,95091.34
2018-09-29T11:19:00.934Z,95085.41
2018-09-29T11:21:28.814Z,95082.52
2018-09-29T11:23:57.286Z,95081.70
2018-09-29T11:26:25.272Z,95078.52
2018-09-29T11:28:53.244Z,95076.24
2018-09-29T11:31:21.199Z,95073.67
2018-09-29T11:33:49.231Z,95067.13
2018-09-29T11:36:29.687Z,95065.66
2018-09-29T11:39:10.362Z,95064.85
2018-09-29T11:41:39.418Z,95065.08
2018-09-29T11:47:10.280Z,95057.27
2018-09-29T11:49:43.151Z,95052.84
2018-09-29T11:52:22.697Z,95045.16
2018-09-29T11:54:53.161Z,95047.83
2018-09-29T12:00:32.893Z,95049.17
2018-09-29T12:12:21.386Z,95053.37
2018-09-29T12:24:11.676Z,95047.31
2018-09-29T12:28:50.587Z,95042.27
2018-09-29T12:31:18.767Z,95044.94
2018-09-29T12:33:46.874Z,95050.90
2018-09-29T12:36:14.959Z,95043.12
2018-09-29T12:38:43.859Z,95043.41
2018-09-29T12:41:11.936Z,95052.53
2018-09-29T12:43:40.044Z,95052.23
2018-09-29T12:46:08.142Z,95053.86
2018-09-29T12:48:36.222Z,95051.71
2018-09-29T12:51:06.360Z,95049.46
2018-09-29T12:53:34.386Z,95046.89
2018-09-29T12:56:02.325Z,95045.04
2018-09-29T12:58:30.413Z,95041.27
2018-09-29T13:00:58.512Z,95044.52
2018-09-29T13:03:26.620Z,95047.94
2018-09-29T13:05:54.777Z,95043.41
2018-09-29T13:08:22.846Z,95038.59
2018-09-29T13:10:50.953Z,95033.77
2018-09-29T13:13:19.060Z,95035.92
2018-09-29T13:15:47.061Z,95028.93
2018-09-29T13:18:15.470Z,95028.11
2018-09-29T13:20:43.426Z,95032.94
2018-09-29T13:23:11.511Z,95031.30
2018-09-29T13:25:39.587Z,95033.16
2018-09-29T13:28:08.435Z,95025.67
2018-09-29T13:30:36.597Z,95028.83
2018-09-29T13:33:04.676Z,95038.17
2018-09-29T13:35:32.746Z,95030.16
2018-09-29T13:38:00.771Z,95029.34
2018-09-29T13:40:28.733Z,95032.02
2018-09-29T13:42:56.733Z,95027.20
2018-09-29T13:45:24.730Z,95029.67
2018-09-29T13:47:52.713Z,95021.87
2018-09-29T13:50:20.798Z,95028.34
2018-09-29T13:52:48.912Z,95020.02
2018-09-29T13:55:16.969Z,95017.05
2018-09-29T13:57:45.597Z,95026.39
2018-09-29T14:00:13.789Z,95027.20
2018-09-29T14:02:41.774Z,95030.09
2018-09-29T14:05:10.063Z,95030.09
2018-09-29T14:07:38.141Z,95010.17
2018-09-29T14:10:06.459Z,95035.44
2018-09-29T14:12:34.527Z,95034.10
2018-09-29T14:15:02.515Z,95037.58
2018-09-29T14:17:30.618Z,95042.11
2018-09-29T14:19:58.710Z,95037.58
2018-09-29T14:22:38.778Z,95042.92
